Time;durP1;ratioP1;P1;durP2;ratioP2;P2;SDS_P1;SDS_P2;PMS_P1;PMS_P2;Temp;Humidity;BMP_temperature;BMP_pressure;BME280_temperature;BME280_humidity;BME280_pressure;Samples;Min_cycle;Max_cycle;Signal;HPM_P1;HPM_P2
2023/09/17 00:02:00;;;;;;;19.80;15.10;;;19.70;27.20;;;;;;5025561;28;20490;-64
2023/09/17 00:04:27;;;;;;;17.70;15.07;;;19.70;27.20;;;;;;5023307;28;20478;-64
2023/09/17 00:06:53;;;;;;;16.47;14.50;;;19.70;27.10;;;;;;5026528;28;20459;-64
2023/09/17 00:09:20;;;;;;;16.10;14.40;;;19.70;27.10;;;;;;5021430;28;20471;-64
2023/09/17 00:11:48;;;;;;;15.30;13.47;;;19.70;27.00;;;;;;5028346;28;20512;-64
2023/09/17 00:14:15;;;;;;;18.90;14.73;;;19.70;27.20;;;;;;5029798;28;20844;-64
2023/09/17 00:16:42;;;;;;;21.47;14.60;;;19.60;27.10;;;;;;5025799;28;20494;-64
2023/09/17 00:19:08;;;;;;;16.00;14.33;;;19.60;27.20;;;;;;5028308;28;20478;-64
2023/09/17 00:21:35;;;;;;;16.03;14.27;;;19.50;27.50;;;;;;5027037;28;20475;-64
2023/09/17 00:24:02;;;;;;;17.13;15.30;;;19.50;27.50;;;;;;5026153;28;20880;-64
2023/09/17 00:26:29;;;;;;;22.80;15.70;;;19.40;27.70;;;;;;5027088;28;20459;-64
2023/09/17 00:28:57;;;;;;;17.37;14.80;;;19.40;27.90;;;;;;5028684;28;20478;-64
2023/09/17 00:31:23;;;;;;;15.67;14.03;;;19.30;28.20;;;;;;5027786;28;20522;-64
2023/09/17 00:33:50;;;;;;;18.37;14.73;;;19.30;28.30;;;;;;5024954;28;20498;-65
2023/09/17 00:36:17;;;;;;;18.37;14.10;;;19.30;28.60;;;;;;5026620;28;20475;-65
2023/09/17 00:38:43;;;;;;;23.27;16.97;;;19.20;28.70;;;;;;5025920;28;20475;-64
2023/09/17 00:41:10;;;;;;;19.13;16.60;;;19.20;29.20;;;;;;5027240;28;20466;-64
2023/09/17 00:43:37;;;;;;;16.83;15.03;;;19.10;29.20;;;;;;5026381;28;20483;-64
2023/09/17 00:46:05;;;;;;;16.67;14.97;;;19.10;29.30;;;;;;5025058;28;20471;-64
2023/09/17 00:48:32;;;;;;;17.60;14.73;;;19.10;29.60;;;;;;5028807;28;20466;-64
2023/09/17 00:50:59;;;;;;;17.90;15.70;;;19.10;29.70;;;;;;5029144;28;20466;-65
2023/09/17 00:53:27;;;;;;;17.37;14.90;;;19.10;29.60;;;;;;5027004;28;20510;-65
2023/09/17 00:55:54;;;;;;;16.57;14.30;;;19.00;29.50;;;;;;5026661;28;20562;-65
2023/09/17 00:58:21;;;;;;;19.67;15.43;;;19.00;29.50;;;;;;5026734;28;20478;-64
2023/09/17 01:00:47;;;;;;;15.90;14.20;;;18.90;30.00;;;;;;5025908;28;20463;-65
2023/09/17 01:03:16;;;;;;;21.37;16.07;;;18.90;29.90;;;;;;5028216;28;20486;-63
2023/09/17 01:05:43;;;;;;;19.70;16.90;;;18.90;30.30;;;;;;5026579;28;21034;-65
2023/09/17 01:08:10;;;;;;;19.70;15.77;;;18.90;30.20;;;;;;5026715;28;20478;-64
2023/09/17 01:10:40;;;;;;;17.93;15.67;;;18.90;30.30;;;;;;5025597;28;20479;-64
2023/09/17 01:13:08;;;;;;;19.20;16.93;;;18.90;30.10;;;;;;5025621;28;20502;-64
2023/09/17 01:15:35;;;;;;;18.80;14.70;;;18.90;30.30;;;;;;5027415;28;20483;-64
2023/09/17 01:18:02;;;;;;;19.10;13.30;;;18.80;30.40;;;;;;5025836;28;20466;-64
2023/09/17 01:20:33;;;;;;;14.93;13.40;;;18.90;30.60;;;;;;5023771;28;20935;-64
2023/09/17 01:23:08;;;;;;;20.63;13.00;;;18.80;30.80;;;;;;5024701;28;21301;-65
2023/09/17 01:25:42;;;;;;;17.07;11.93;;;18.80;30.70;;;;;;5025119;28;20454;-64
2023/09/17 01:28:12;;;;;;;15.50;10.60;;;18.80;30.80;;;;;;5025892;28;20987;-65
2023/09/17 01:30:41;;;;;;;13.00;10.60;;;18.80;30.70;;;;;;5025837;28;20488;-64
2023/09/17 01:33:10;;;;;;;14.77;11.27;;;18.80;30.60;;;;;;5026439;28;20463;-65
2023/09/17 01:35:44;;;;;;;12.93;10.63;;;18.80;30.40;;;;;;5027085;28;20482;-65
2023/09/17 01:38:14;;;;;;;13.30;11.03;;;18.80;30.30;;;;;;5024803;28;20847;-64
2023/09/17 01:40:44;;;;;;;11.50;10.20;;;18.80;30.10;;;;;;5025743;28;20478;-65
2023/09/17 01:43:12;;;;;;;11.40;9.80;;;18.80;30.10;;;;;;5026459;28;20475;-63
2023/09/17 01:45:41;;;;;;;12.93;9.60;;;18.80;30.00;;;;;;5025496;28;20829;-63
2023/09/17 01:48:08;;;;;;;11.43;9.73;;;18.80;29.90;;;;;;5025818;28;20471;-64
2023/09/17 01:50:36;;;;;;;13.43;10.40;;;18.80;29.90;;;;;;5027782;28;20467;-64
2023/09/17 01:53:03;;;;;;;16.73;10.97;;;18.70;30.00;;;;;;5024835;28;20542;-63
2023/09/17 01:55:30;;;;;;;16.10;10.67;;;18.70;30.00;;;;;;5025812;28;20467;-63
2023/09/17 01:57:56;;;;;;;12.43;10.30;;;18.70;30.20;;;;;;5023692;28;20467;-65
2023/09/17 02:00:24;;;;;;;13.47;9.73;;;18.70;30.10;;;;;;5026479;28;20459;-64
2023/09/17 02:02:53;;;;;;;12.20;10.10;;;18.70;30.00;;;;;;5025030;28;20503;-64
2023/09/17 02:05:24;;;;;;;14.63;10.50;;;18.70;30.30;;;;;;5025061;28;20479;-63
2023/09/17 02:07:51;;;;;;;13.40;11.07;;;18.70;30.10;;;;;;5024388;28;21006;-64
2023/09/17 02:10:18;;;;;;;13.43;10.10;;;18.70;30.20;;;;;;5020860;28;20463;-64
2023/09/17 02:12:45;;;;;;;13.73;11.73;;;18.70;30.10;;;;;;5021557;28;21241;-64
2023/09/17 02:15:11;;;;;;;15.27;10.77;;;18.70;30.20;;;;;;5025721;28;20510;-64
2023/09/17 02:17:42;;;;;;;14.83;9.90;;;18.70;30.20;;;;;;5022593;28;20487;-64
2023/09/17 02:20:11;;;;;;;11.73;10.13;;;18.70;30.20;;;;;;5023901;28;20865;-64
2023/09/17 02:22:38;;;;;;;15.00;10.10;;;18.80;30.10;;;;;;5026445;28;20918;-63
2023/09/17 02:25:05;;;;;;;11.27;9.53;;;18.70;30.10;;;;;;5024453;28;20482;-63
2023/09/17 02:27:32;;;;;;;10.83;9.43;;;18.70;30.00;;;;;;5027287;28;20462;-64
2023/09/17 02:29:59;;;;;;;16.50;10.13;;;18.70;30.00;;;;;;5024802;28;20493;-63
2023/09/17 02:32:26;;;;;;;12.20;9.33;;;18.60;30.20;;;;;;5019351;28;21026;-63
2023/09/17 02:34:54;;;;;;;11.43;9.40;;;18.50;30.30;;;;;;5027173;28;20517;-63
2023/09/17 02:37:21;;;;;;;10.40;9.30;;;18.50;30.40;;;;;;5025765;28;20487;-63
2023/09/17 02:39:48;;;;;;;11.23;9.30;;;18.40;30.60;;;;;;5026326;28;20475;-63
2023/09/17 02:42:14;;;;;;;13.80;10.73;;;18.40;30.60;;;;;;5025814;28;20743;-63
2023/09/17 02:44:42;;;;;;;12.00;9.23;;;18.30;30.80;;;;;;5025005;28;20492;-63
2023/09/17 02:47:09;;;;;;;12.10;9.80;;;18.30;30.90;;;;;;5018614;28;20464;-63
2023/09/17 02:49:35;;;;;;;17.27;10.70;;;18.30;31.00;;;;;;5023743;28;20467;-63
2023/09/17 02:52:06;;;;;;;11.60;9.33;;;18.30;31.10;;;;;;5026701;28;20493;-64
2023/09/17 02:54:32;;;;;;;13.70;10.90;;;18.20;31.00;;;;;;5025493;28;20494;-63
2023/09/17 02:56:59;;;;;;;11.40;9.67;;;18.20;31.10;;;;;;5024633;28;20479;-64
2023/09/17 02:59:26;;;;;;;11.43;9.20;;;18.20;31.10;;;;;;5026718;28;20873;-64
2023/09/17 03:01:52;;;;;;;10.90;9.20;;;18.10;31.20;;;;;;5025182;28;20471;-63
2023/09/17 03:04:19;;;;;;;11.83;9.70;;;18.10;31.30;;;;;;5026895;28;20998;-63
2023/09/17 03:06:46;;;;;;;12.60;9.90;;;18.00;31.90;;;;;;5030608;28;20454;-63
2023/09/17 03:09:14;;;;;;;12.27;10.00;;;18.00;31.30;;;;;;5029986;28;20462;-63
2023/09/17 03:11:41;;;;;;;13.17;10.40;;;17.90;31.50;;;;;;5028329;28;20477;-63
2023/09/17 03:14:07;;;;;;;14.30;10.10;;;17.90;31.50;;;;;;5025583;28;20939;-63
2023/09/17 03:16:34;;;;;;;11.17;9.30;;;17.90;31.40;;;;;;5043256;28;20490;-63
2023/09/17 03:19:01;;;;;;;13.30;9.40;;;17.90;31.50;;;;;;5039213;28;20463;-63
2023/09/17 03:21:28;;;;;;;11.77;10.30;;;17.90;31.60;;;;;;5030943;28;20474;-63
2023/09/17 03:23:55;;;;;;;11.63;9.40;;;17.90;31.60;;;;;;5030679;28;20486;-63
2023/09/17 03:28:52;;;;;;;11.70;9.60;;;17.80;32.10;;;;;;4972439;28;20485;-64
2023/09/17 03:31:19;;;;;;;13.97;9.60;;;17.80;32.00;;;;;;4970267;28;20504;-65
2023/09/17 03:33:45;;;;;;;11.10;9.33;;;17.80;31.90;;;;;;4974467;28;20499;-64
2023/09/17 03:36:12;;;;;;;11.57;9.83;;;17.90;32.00;;;;;;4992085;28;20484;-64
2023/09/17 03:38:39;;;;;;;12.47;9.80;;;17.90;32.10;;;;;;4989735;28;20567;-64
2023/09/17 03:41:06;;;;;;;11.80;9.90;;;17.90;32.10;;;;;;4993975;28;20463;-64
2023/09/17 03:43:34;;;;;;;12.03;8.70;;;17.90;32.20;;;;;;4989463;28;20489;-64
2023/09/17 03:46:03;;;;;;;14.10;10.20;;;17.80;32.10;;;;;;4991537;28;20464;-64
2023/09/17 03:48:30;;;;;;;12.07;10.60;;;17.80;32.20;;;;;;4984728;28;20850;-64
2023/09/17 03:50:58;;;;;;;11.87;9.70;;;17.80;32.30;;;;;;4985415;28;20836;-65
2023/09/17 03:53:25;;;;;;;15.67;9.83;;;17.80;32.20;;;;;;4988824;28;20520;-64
2023/09/17 03:55:52;;;;;;;10.93;8.00;;;17.80;32.40;;;;;;4987676;28;20567;-65
2023/09/17 03:58:21;;;;;;;11.30;9.60;;;17.70;32.30;;;;;;4989660;28;20488;-64
2023/09/17 04:00:48;;;;;;;14.00;9.60;;;17.70;32.30;;;;;;4990896;28;20495;-66
2023/09/17 04:03:19;;;;;;;11.87;9.80;;;17.70;32.50;;;;;;4987423;28;20524;-64
2023/09/17 04:05:46;;;;;;;16.13;10.17;;;17.70;32.50;;;;;;4991349;28;20480;-65
2023/09/17 04:08:13;;;;;;;11.50;9.93;;;17.70;32.50;;;;;;4985218;28;20493;-65
2023/09/17 04:10:40;;;;;;;13.40;10.17;;;17.70;32.70;;;;;;4994249;28;20475;-64
2023/09/17 04:13:09;;;;;;;11.60;9.47;;;17.60;32.60;;;;;;4987994;28;20469;-65
2023/09/17 04:15:37;;;;;;;13.40;10.10;;;17.60;32.60;;;;;;4987420;28;20496;-64
2023/09/17 04:18:05;;;;;;;12.27;8.93;;;17.60;32.80;;;;;;4986721;28;20575;-64
2023/09/17 04:20:33;;;;;;;13.43;11.13;;;17.50;33.00;;;;;;4988394;28;20472;-64
2023/09/17 04:23:00;;;;;;;12.03;10.77;;;17.50;33.00;;;;;;4993314;28;20475;-64
2023/09/17 04:25:27;;;;;;;13.50;11.60;;;17.50;33.10;;;;;;4989688;28;20476;-64
2023/09/17 04:27:55;;;;;;;14.17;11.17;;;17.50;33.20;;;;;;4989277;28;20473;-64
2023/09/17 04:30:22;;;;;;;13.63;9.60;;;17.50;33.40;;;;;;4982543;28;20468;-64
2023/09/17 04:32:50;;;;;;;13.97;10.40;;;17.40;33.40;;;;;;4989548;28;20549;-64
2023/09/17 04:35:18;;;;;;;14.13;11.63;;;17.40;33.40;;;;;;4990821;28;20494;-64
2023/09/17 04:37:48;;;;;;;11.27;10.07;;;17.40;33.60;;;;;;4992102;28;20507;-64
2023/09/17 04:40:14;;;;;;;12.23;10.93;;;17.40;33.60;;;;;;4986915;28;20476;-65
2023/09/17 04:42:43;;;;;;;14.17;11.30;;;17.40;33.80;;;;;;4988409;28;20476;-65
2023/09/17 04:45:11;;;;;;;13.60;11.43;;;17.30;33.90;;;;;;4987855;28;20524;-64
2023/09/17 04:47:39;;;;;;;16.83;11.97;;;17.30;33.90;;;;;;4988463;28;20560;-64
2023/09/17 04:50:08;;;;;;;18.60;11.73;;;17.40;33.90;;;;;;4991901;28;20471;-64
2023/09/17 04:52:35;;;;;;;14.50;11.90;;;17.40;34.00;;;;;;4987466;28;20977;-64
2023/09/17 04:55:04;;;;;;;15.57;12.10;;;17.40;34.10;;;;;;4988729;28;20515;-65
2023/09/17 04:57:31;;;;;;;14.17;11.40;;;17.40;34.10;;;;;;4988135;28;20583;-64
2023/09/17 04:59:57;;;;;;;18.03;13.07;;;17.40;34.30;;;;;;4985200;28;20548;-64
2023/09/17 05:02:24;;;;;;;15.43;12.20;;;17.40;34.40;;;;;;4986851;28;20482;-64
2023/09/17 05:04:51;;;;;;;17.80;12.20;;;17.40;34.30;;;;;;4985403;28;20491;-65
2023/09/17 05:07:17;;;;;;;13.60;12.13;;;17.50;34.30;;;;;;4988833;28;20460;-65
2023/09/17 05:09:44;;;;;;;13.73;11.70;;;17.50;34.40;;;;;;4987762;28;20973;-66
2023/09/17 05:12:12;;;;;;;15.03;11.77;;;17.50;34.40;;;;;;4987798;28;20464;-66
2023/09/17 05:14:39;;;;;;;12.70;10.90;;;17.60;34.20;;;;;;4985810;28;20495;-66
2023/09/17 05:17:06;;;;;;;15.97;11.70;;;17.60;34.10;;;;;;4982793;28;21029;-65
2023/09/17 05:19:32;;;;;;;14.67;13.03;;;17.60;34.10;;;;;;4983334;28;21129;-65
2023/09/17 05:21:59;;;;;;;16.60;11.70;;;17.60;34.90;;;;;;4990345;28;20618;-65
2023/09/17 05:24:26;;;;;;;14.37;11.80;;;17.70;34.00;;;;;;4985049;28;20469;-65
2023/09/17 05:26:52;;;;;;;14.50;12.20;;;17.80;33.80;;;;;;4986299;28;20473;-65
2023/09/17 05:29:20;;;;;;;15.57;12.43;;;17.80;33.70;;;;;;4987320;28;21032;-65
2023/09/17 05:31:47;;;;;;;19.50;11.57;;;17.90;33.90;;;;;;4979292;28;20504;-65
2023/09/17 05:34:14;;;;;;;14.97;11.73;;;17.90;33.90;;;;;;4979474;28;20491;-65
2023/09/17 05:36:41;;;;;;;17.40;12.23;;;17.90;33.70;;;;;;4987235;28;20559;-65
2023/09/17 05:39:09;;;;;;;15.50;12.93;;;17.90;33.50;;;;;;4985567;28;20473;-65
2023/09/17 05:41:36;;;;;;;15.03;12.03;;;17.90;33.60;;;;;;4988530;28;20496;-65
2023/09/17 05:44:03;;;;;;;16.90;12.53;;;18.00;33.60;;;;;;4985900;28;20489;-65
2023/09/17 05:46:32;;;;;;;14.23;12.80;;;18.00;33.40;;;;;;4982562;28;20475;-65
2023/09/17 05:48:58;;;;;;;21.17;12.23;;;18.10;33.50;;;;;;4983227;28;20986;-65
2023/09/17 05:51:25;;;;;;;12.63;11.23;;;18.20;33.30;;;;;;4983717;28;20499;-65
2023/09/17 05:53:52;;;;;;;12.90;11.50;;;18.40;33.20;;;;;;4983660;28;20484;-65
2023/09/17 05:56:18;;;;;;;13.13;11.60;;;18.80;33.90;;;;;;4984661;28;20480;-65
2023/09/17 05:58:45;;;;;;;11.87;10.47;;;19.50;33.10;;;;;;4985030;28;20491;-65
2023/09/17 06:01:12;;;;;;;13.63;11.93;;;20.10;31.30;;;;;;4980868;28;20492;-66
2023/09/17 06:03:41;;;;;;;14.83;10.17;;;20.30;29.90;;;;;;4985719;28;20492;-66
2023/09/17 06:06:08;;;;;;;13.10;10.80;;;20.30;28.60;;;;;;4982973;28;20468;-66
2023/09/17 06:08:35;;;;;;;12.80;10.47;;;20.40;27.50;;;;;;4984381;28;21394;-66
2023/09/17 06:11:01;;;;;;;11.83;10.57;;;20.40;27.00;;;;;;4985690;28;20965;-66
2023/09/17 06:13:28;;;;;;;14.23;10.57;;;20.30;27.10;;;;;;4986481;28;21023;-66
2023/09/17 06:15:55;;;;;;;15.87;12.10;;;20.30;27.20;;;;;;4985251;28;20477;-66
2023/09/17 06:18:21;;;;;;;12.97;10.70;;;20.20;27.50;;;;;;4985965;28;20490;-66
2023/09/17 06:20:50;;;;;;;13.20;11.30;;;20.30;27.60;;;;;;4987827;28;20842;-66
2023/09/17 06:23:16;;;;;;;14.77;13.27;;;20.20;27.80;;;;;;4983877;28;20523;-66
2023/09/17 06:25:43;;;;;;;12.97;10.40;;;20.30;28.20;;;;;;4985221;28;20480;-66
2023/09/17 06:28:10;;;;;;;15.13;11.13;;;20.30;28.80;;;;;;4985722;28;20467;-66
2023/09/17 06:30:36;;;;;;;13.80;11.80;;;20.40;28.10;;;;;;4985204;28;21178;-66
2023/09/17 06:33:03;;;;;;;14.87;12.37;;;20.50;28.10;;;;;;4989115;28;20464;-66
2023/09/17 06:35:30;;;;;;;16.17;13.40;;;20.60;28.10;;;;;;4982892;28;20460;-65
2023/09/17 06:37:58;;;;;;;14.40;11.40;;;20.60;27.90;;;;;;4985608;28;20535;-66
2023/09/17 06:40:25;;;;;;;12.87;11.47;;;20.60;27.90;;;;;;4993285;28;20472;-65
2023/09/17 06:42:52;;;;;;;15.37;11.90;;;20.70;27.70;;;;;;4990538;28;20711;-66
2023/09/17 06:45:19;;;;;;;13.63;11.20;;;20.80;27.40;;;;;;4990469;28;20498;-66
2023/09/17 06:47:45;;;;;;;14.80;12.47;;;20.80;27.10;;;;;;4985030;28;20465;-66
2023/09/17 06:50:13;;;;;;;13.97;12.27;;;20.80;26.80;;;;;;4989072;28;20488;-66
2023/09/17 06:52:40;;;;;;;16.13;13.90;;;20.80;26.30;;;;;;4993416;28;20523;-66
2023/09/17 06:55:08;;;;;;;14.00;11.73;;;20.90;25.70;;;;;;4985840;28;20495;-66
2023/09/17 06:57:36;;;;;;;14.67;12.53;;;21.00;26.00;;;;;;4993383;28;20489;-66
2023/09/17 07:00:03;;;;;;;13.77;11.27;;;21.00;25.90;;;;;;4991332;28;20839;-66
2023/09/17 07:02:29;;;;;;;14.10;11.10;;;21.30;26.00;;;;;;4990001;28;21116;-66
2023/09/17 07:04:56;;;;;;;12.73;9.33;;;23.10;23.90;;;;;;4994608;28;20495;-68
2023/09/17 07:07:23;;;;;;;12.60;10.27;;;26.00;17.10;;;;;;4991878;28;20461;-67
2023/09/17 07:09:49;;;;;;;11.27;10.10;;;27.40;10.30;;;;;;4994222;28;20980;-67
2023/09/17 07:12:17;;;;;;;11.73;10.30;;;28.70;7.80;;;;;;4992414;28;20463;-68
2023/09/17 07:14:45;;;;;;;10.17;8.93;;;31.50;2.80;;;;;;4982861;28;20489;-68
2023/09/17 07:17:11;;;;;;;9.50;8.50;;;34.00;1.00;;;;;;4989405;28;20484;-70
2023/09/17 07:19:38;;;;;;;9.60;8.37;;;35.90;1.00;;;;;;4982647;28;20468;-69
2023/09/17 07:22:10;;;;;;;10.80;8.60;;;37.70;1.00;;;;;;4987273;28;20472;-69
2023/09/17 07:24:37;;;;;;;9.80;8.73;;;39.00;1.00;;;;;;4992879;28;20484;-69
2023/09/17 07:27:04;;;;;;;9.03;7.87;;;40.00;1.00;;;;;;4988998;28;20960;-70
2023/09/17 07:29:32;;;;;;;7.67;6.37;;;41.10;1.00;;;;;;4994524;28;20487;-71
2023/09/17 07:31:59;;;;;;;7.30;6.60;;;42.50;1.00;;;;;;4989219;28;20472;-69
2023/09/17 07:34:26;;;;;;;8.03;6.70;;;43.90;1.00;;;;;;4989204;28;20571;-70
2023/09/17 07:36:54;;;;;;;6.60;5.67;;;45.00;1.00;;;;;;4997859;28;20468;-70
2023/09/17 07:39:21;;;;;;;6.67;5.90;;;45.30;1.00;;;;;;4990729;28;20906;-70
2023/09/17 07:41:47;;;;;;;7.50;6.20;;;45.20;1.00;;;;;;4987416;28;21082;-70
2023/09/17 07:44:14;;;;;;;7.00;5.97;;;44.50;1.00;;;;;;4993204;28;20480;-70
2023/09/17 07:46:42;;;;;;;6.00;5.40;;;43.30;1.00;;;;;;4992637;28;20964;-69
2023/09/17 07:49:09;;;;;;;7.47;6.40;;;42.40;1.00;;;;;;4993215;28;20457;-69
2023/09/17 07:51:36;;;;;;;9.73;6.90;;;41.80;1.00;;;;;;4984790;28;20464;-70
2023/09/17 07:54:02;;;;;;;6.57;5.87;;;41.10;1.00;;;;;;4987756;28;20489;-70
2023/09/17 07:56:29;;;;;;;7.23;6.13;;;40.50;1.00;;;;;;4989363;28;20473;-70
2023/09/17 07:58:56;;;;;;;6.93;6.20;;;40.20;1.00;;;;;;4985978;28;20480;-70
2023/09/17 08:01:22;;;;;;;7.17;6.47;;;40.30;1.00;;;;;;4986215;28;20491;-69
2023/09/17 08:03:51;;;;;;;6.53;5.83;;;40.60;1.00;;;;;;4985496;28;20600;-69
2023/09/17 08:06:17;;;;;;;6.70;6.00;;;40.30;1.00;;;;;;4985574;28;20477;-70
2023/09/17 08:08:45;;;;;;;6.80;6.10;;;40.70;1.00;;;;;;4987817;28;20816;-69
2023/09/17 08:11:14;;;;;;;7.63;6.13;;;40.30;1.00;;;;;;4991289;28;20493;-70
2023/09/17 08:13:41;;;;;;;7.17;5.20;;;39.50;1.00;;;;;;4991145;28;20481;-69
2023/09/17 08:16:08;;;;;;;6.80;5.30;;;38.80;1.00;;;;;;4988868;28;20504;-69
2023/09/17 08:18:34;;;;;;;6.10;5.37;;;38.40;1.00;;;;;;4979220;28;21197;-68
2023/09/17 08:21:03;;;;;;;6.30;5.33;;;38.30;1.00;;;;;;4985263;28;20472;-68
2023/09/17 08:23:30;;;;;;;6.77;5.37;;;38.40;1.00;;;;;;4989492;28;20488;-69
2023/09/17 08:25:57;;;;;;;7.10;5.33;;;37.90;1.00;;;;;;4982733;28;20524;-68
2023/09/17 08:28:24;;;;;;;28.17;5.77;;;37.70;1.00;;;;;;4988492;28;21236;-68
2023/09/17 08:30:51;;;;;;;8.60;5.97;;;37.90;1.00;;;;;;4986853;28;20519;-67
2023/09/17 08:33:17;;;;;;;8.50;5.10;;;38.00;1.00;;;;;;4975296;28;20495;-66
2023/09/17 08:35:44;;;;;;;7.37;5.33;;;38.40;1.00;;;;;;4981457;28;20925;-69
2023/09/17 08:38:12;;;;;;;6.57;5.00;;;39.60;1.00;;;;;;4983304;28;20489;-67
2023/09/17 08:40:40;;;;;;;7.70;5.00;;;40.80;1.00;;;;;;4986439;28;20475;-67
2023/09/17 08:43:07;;;;;;;8.70;5.03;;;41.20;1.00;;;;;;4985799;28;20480;-68
2023/09/17 08:45:33;;;;;;;7.20;4.70;;;41.40;1.00;;;;;;4980274;28;20487;-70
2023/09/17 08:48:00;;;;;;;7.47;5.30;;;41.40;1.00;;;;;;4981898;28;20478;-67
2023/09/17 08:50:30;;;;;;;6.97;4.90;;;42.80;1.00;;;;;;4980279;28;20473;-68
2023/09/17 08:53:02;;;;;;;6.07;4.77;;;44.70;1.00;;;;;;4981875;28;20473;-67
2023/09/17 08:55:30;;;;;;;5.37;4.50;;;46.30;1.00;;;;;;4980478;28;20473;-70
2023/09/17 08:58:07;;;;;;;4.87;3.37;;;46.60;1.00;;;;;;4985090;28;20493;-67
2023/09/17 09:00:36;;;;;;;5.17;3.20;;;47.50;1.00;;;;;;4978707;28;20541;-68
2023/09/17 09:03:06;;;;;;;8.17;3.80;;;48.90;1.00;;;;;;4985485;28;21290;-70
2023/09/17 09:05:35;;;;;;;6.10;3.20;;;49.70;1.00;;;;;;4989821;28;20468;-69
2023/09/17 09:08:04;;;;;;;6.23;3.30;;;50.50;1.00;;;;;;4985452;28;20476;-67
2023/09/17 09:10:32;;;;;;;5.77;3.43;;;51.30;1.00;;;;;;4985212;28;20879;-69
2023/09/17 09:12:59;;;;;;;5.70;2.83;;;51.80;1.00;;;;;;4979925;28;20477;-68
2023/09/17 09:15:27;;;;;;;5.90;3.23;;;52.50;1.00;;;;;;4988551;28;20456;-68
2023/09/17 09:17:55;;;;;;;5.00;3.20;;;53.20;1.00;;;;;;4985696;28;20546;-67
2023/09/17 09:20:22;;;;;;;6.37;2.90;;;53.70;1.00;;;;;;4981766;28;20481;-67
2023/09/17 09:22:49;;;;;;;4.70;2.93;;;54.10;1.00;;;;;;4988256;28;20460;-67
2023/09/17 09:25:18;;;;;;;4.87;2.80;;;54.60;1.00;;;;;;4987367;28;20559;-65
2023/09/17 09:27:46;;;;;;;5.97;2.93;;;55.10;1.00;;;;;;5012996;23;20536;-66
2023/09/17 09:30:15;;;;;;;5.60;2.97;;;55.10;1.00;;;;;;5003547;28;20459;-66
2023/09/17 09:32:42;;;;;;;4.70;2.50;;;55.20;1.00;;;;;;5008216;28;20495;-66
2023/09/17 09:35:09;;;;;;;5.37;2.47;;;55.40;1.00;;;;;;5006604;28;20483;-67
2023/09/17 09:37:36;;;;;;;4.80;2.40;;;55.80;1.00;;;;;;5004347;28;20470;-65
2023/09/17 09:40:04;;;;;;;5.40;2.33;;;56.00;1.00;;;;;;5007529;28;20873;-65
2023/09/17 09:42:31;;;;;;;3.53;2.03;;;56.10;1.00;;;;;;5002457;28;20204;-64
2023/09/17 09:44:59;;;;;;;5.10;2.50;;;56.40;1.00;;;;;;5006302;28;20225;-66
2023/09/17 09:47:26;;;;;;;4.33;2.40;;;56.70;1.00;;;;;;5003573;28;20227;-66
2023/09/17 09:49:53;;;;;;;5.55;2.40;;;57.20;1.00;;;;;;5003486;28;20681;-64
2023/09/17 09:52:24;;;;;;;3.83;2.22;;;57.40;1.00;;;;;;5007107;28;20304;-64
2023/09/17 09:54:50;;;;;;;4.30;2.50;;;57.40;1.00;;;;;;5002210;28;20242;-64
2023/09/17 09:57:19;;;;;;;4.25;2.50;;;57.30;1.00;;;;;;5009774;28;20546;-63
2023/09/17 09:59:48;;;;;;;6.70;2.60;;;56.70;1.00;;;;;;5003911;28;20228;-65
2023/09/17 10:02:20;;;;;;;5.60;2.80;;;56.60;1.00;;;;;;5003504;28;20224;-65
2023/09/17 10:04:47;;;;;;;5.25;2.45;;;56.80;1.00;;;;;;5002911;28;20244;-67
2023/09/17 10:07:15;;;;;;;7.33;3.17;;;56.70;1.00;;;;;;5005056;28;20219;-64
2023/09/17 10:09:42;;;;;;;5.90;2.57;;;56.60;1.00;;;;;;5004550;28;20197;-65
2023/09/17 10:12:10;;;;;;;5.77;2.73;;;56.90;1.00;;;;;;5005223;28;20201;-65
2023/09/17 10:14:38;;;;;;;8.33;2.30;;;56.80;1.00;;;;;;5006465;28;20482;-65
2023/09/17 10:17:06;;;;;;;6.17;3.00;;;56.70;1.00;;;;;;5003004;28;20534;-64
2023/09/17 10:19:36;;;;;;;4.57;2.53;;;56.50;1.00;;;;;;5005386;28;20494;-65
2023/09/17 10:22:06;;;;;;;3.20;1.97;;;56.30;1.00;;;;;;5004843;28;20912;-65
2023/09/17 10:24:36;;;;;;;7.40;2.17;;;56.30;1.00;;;;;;5006419;28;20530;-64
2023/09/17 10:27:04;;;;;;;4.60;2.00;;;56.20;1.00;;;;;;5004863;28;20475;-63
2023/09/17 10:29:33;;;;;;;5.03;2.00;;;55.80;1.00;;;;;;5004191;28;20511;-64
2023/09/17 10:32:02;;;;;;;8.37;2.73;;;55.10;1.00;;;;;;5006238;28;21095;-66
2023/09/17 10:34:31;;;;;;;6.10;2.70;;;54.50;1.00;;;;;;5004255;28;20518;-64
2023/09/17 10:37:01;;;;;;;6.40;2.23;;;54.10;1.00;;;;;;5006106;28;20566;-64
2023/09/17 10:39:29;;;;;;;7.83;2.80;;;53.80;1.00;;;;;;5007491;28;20510;-63
2023/09/17 10:41:56;;;;;;;4.30;2.13;;;53.60;1.00;;;;;;5003976;28;20823;-64
2023/09/17 10:44:24;;;;;;;5.70;2.60;;;52.90;1.00;;;;;;5003944;28;20487;-64
2023/09/17 10:46:53;;;;;;;5.87;2.07;;;52.20;1.00;;;;;;5003169;28;20492;-64
2023/09/17 10:49:21;;;;;;;5.57;2.37;;;51.60;1.00;;;;;;5004561;28;20472;-63
2023/09/17 10:51:49;;;;;;;5.63;2.60;;;51.50;1.00;;;;;;5003306;28;20468;-63
2023/09/17 10:54:17;;;;;;;4.57;2.07;;;51.50;1.00;;;;;;4998975;28;20859;-65
2023/09/17 10:56:45;;;;;;;6.50;3.00;;;51.00;1.00;;;;;;5003593;28;20471;-65
2023/09/17 10:59:14;;;;;;;7.60;2.90;;;50.50;1.00;;;;;;5003793;28;20912;-66
2023/09/17 11:01:43;;;;;;;6.67;3.70;;;49.70;1.00;;;;;;5005502;28;20506;-66
2023/09/17 11:04:15;;;;;;;5.20;3.70;;;48.50;1.00;;;;;;5005624;28;20499;-65
2023/09/17 11:06:45;;;;;;;6.10;3.93;;;47.60;1.00;;;;;;5003267;28;20467;-66
2023/09/17 11:09:12;;;;;;;6.40;3.57;;;47.00;1.00;;;;;;5005289;28;20826;-66
2023/09/17 11:11:41;;;;;;;6.00;3.50;;;46.40;1.00;;;;;;5008034;28;20471;-67
2023/09/17 11:14:08;;;;;;;7.93;3.90;;;46.10;1.00;;;;;;5005753;28;20836;-66
2023/09/17 11:16:36;;;;;;;7.30;3.80;;;45.70;1.00;;;;;;5001549;28;20479;-66
2023/09/17 11:19:07;;;;;;;4.80;3.40;;;44.80;1.00;;;;;;4998611;28;20498;-65
2023/09/17 11:21:35;;;;;;;7.23;4.30;;;43.80;1.00;;;;;;4996864;28;20817;-67
2023/09/17 11:24:05;;;;;;;7.20;3.77;;;43.20;1.00;;;;;;4998778;28;20969;-64
2023/09/17 11:26:33;;;;;;;7.53;3.43;;;42.30;1.00;;;;;;5006351;28;20463;-63
2023/09/17 11:29:05;;;;;;;7.60;3.33;;;41.70;1.00;;;;;;5008269;28;20474;-63
2023/09/17 11:31:34;;;;;;;5.27;3.10;;;41.30;1.00;;;;;;5004317;28;21015;-67
2023/09/17 11:34:02;;;;;;;8.03;2.77;;;40.30;1.00;;;;;;5007679;28;20518;-68
2023/09/17 11:36:30;;;;;;;7.20;2.83;;;39.10;1.00;;;;;;5009675;28;20468;-69
2023/09/17 11:38:58;;;;;;;6.63;3.00;;;38.10;1.00;;;;;;5007988;28;20582;-64
2023/09/17 11:44:17;;;;;;;7.13;3.27;;;36.50;1.00;;;;;;5006425;28;20489;-65
2023/09/17 11:46:43;;;;;;;9.30;3.77;;;35.80;1.00;;;;;;5009435;28;20483;-63
2023/09/17 11:49:11;;;;;;;5.60;2.50;;;35.20;1.00;;;;;;5006142;28;21046;-66
2023/09/17 11:51:43;;;;;;;6.33;3.13;;;34.70;1.00;;;;;;5010065;28;21119;-64
2023/09/17 11:54:15;;;;;;;6.23;3.23;;;34.30;1.00;;;;;;5000053;28;20519;-64
2023/09/17 11:56:47;;;;;;;8.47;3.33;;;34.00;1.00;;;;;;5007541;28;20495;-64
2023/09/17 11:59:16;;;;;;;6.30;3.20;;;33.70;1.00;;;;;;5008549;28;20524;-64
2023/09/17 12:01:47;;;;;;;7.07;3.57;;;33.40;1.00;;;;;;5005464;28;20480;-66
2023/09/17 12:04:15;;;;;;;6.07;2.87;;;33.20;1.00;;;;;;5006076;28;20487;-67
2023/09/17 12:06:43;;;;;;;5.90;3.40;;;33.00;1.00;;;;;;5006183;28;20474;-63
2023/09/17 12:09:48;;;;;;;7.20;3.10;;;32.70;1.00;;;;;;5006793;28;21168;-64
2023/09/17 12:12:18;;;;;;;8.50;3.20;;;32.50;1.00;;;;;;5002407;28;20972;-63
2023/09/17 12:14:46;;;;;;;6.40;3.00;;;32.20;1.00;;;;;;5006300;28;20491;-63
2023/09/17 12:17:16;;;;;;;8.00;3.00;;;32.00;1.00;;;;;;5002850;28;21000;-65
2023/09/17 12:19:44;;;;;;;7.70;2.67;;;31.90;1.00;;;;;;5002382;28;20598;-64
2023/09/17 12:22:12;;;;;;;5.40;2.53;;;31.80;1.00;;;;;;5003482;28;20528;-64
2023/09/17 12:25:15;;;;;;;7.03;3.20;;;31.60;1.00;;;;;;5005077;28;20503;-64
2023/09/17 12:27:46;;;;;;;6.13;2.47;;;31.50;1.00;;;;;;5007370;28;20507;-66
2023/09/17 12:30:14;;;;;;;8.50;3.50;;;31.40;1.00;;;;;;5001743;28;20471;-64
2023/09/17 12:32:42;;;;;;;6.13;2.40;;;31.30;1.00;;;;;;5012172;28;20472;-64
2023/09/17 12:35:09;;;;;;;7.70;2.70;;;31.20;1.00;;;;;;5005385;28;21011;-64
2023/09/17 12:37:36;;;;;;;6.60;2.40;;;31.00;1.00;;;;;;5005977;28;20463;-64
2023/09/17 12:40:07;;;;;;;6.97;2.70;;;30.90;1.00;;;;;;5007615;28;20483;-64
2023/09/17 12:42:34;;;;;;;4.40;2.20;;;30.80;1.00;;;;;;5003141;28;20899;-64
2023/09/17 12:45:00;;;;;;;5.60;2.70;;;30.60;1.00;;;;;;5008021;28;20987;-64
2023/09/17 12:47:27;;;;;;;8.27;2.40;;;30.40;1.00;;;;;;5004457;28;20472;-64
2023/09/17 12:49:56;;;;;;;8.00;3.07;;;30.40;1.00;;;;;;5007888;28;20464;-64